nws-alerts: Checking more than four warning/county codes can delay the loading of your pages. You should use a cron job to get the data.

Nearby METAR Reports

 

KLBE - Latrobe/Westmorl, Pennsylvania, USA
Distance from station: SE 16mi, 26km
Updated: Sat, 19-Jan-2019 6:50pm EST
Light rain, Overcast
Light rain, Overcast
 Wind from SSE
Wind: SSE 9 mph , 15 km/h
Temperature: 36°F , 2°C
Wind Chill: 29°F , -2°C
Dew Point: 34°F , 1°C
Humidity: 93%
Barometer: 29.64 inHg , 1003.7 hPa
Summary: Light rain
Clouds: Overcast
Visibility: 4 miles , 6 km
Cloud details: Partly cloudy 1500 ft
Overcast 3500 ft
2019/01/19 23:50 KLBE 192350Z 15008KT 4SM -RA SCT015 OVC035 02/01 A2964
KAGC - Pittsburgh/Alleg, Pennsylvania, USA
Distance from station: WSW 18mi, 30km
Updated: Sat, 19-Jan-2019 7:53pm EST
Light rain, Overcast
Light rain, Overcast
 Wind from ESE
Wind: ESE 12 mph , 19 km/h
Temperature: 37°F , 3°C
Wind Chill: 29°F , -2°C
Dew Point: 36°F , 2°C
Humidity: 93%
Barometer: 29.55 inHg , 1000.7 hPa
Summary: Light rain
Clouds: Overcast
Visibility: 7 miles , 11 km
Cloud details: Partly cloudy 1000 ft
Mostly cloudy 1800 ft
Overcast 4400 ft
2019/01/20 00:53 KAGC 200053Z 12010KT 7SM -RA SCT010 BKN018 OVC044 03/02 A2955 RMK AO2 SLP022 P0008 T00280022
 
KBTP - Butler Co., Pennsylvania, USA
Distance from station: NW 29mi, 47km
Updated: Sat, 19-Jan-2019 7:56pm EST
Light rain, Overcast
Light rain, Overcast
 Wind from E
Wind: E 10 mph , 17 km/h
Temperature: 34°F , 1°C
Wind Chill: 26°F , -3°C
Dew Point: 32°F , 0°C
Humidity: 93%
Barometer: 29.60 inHg , 1002.4 hPa
Summary: Light rain
Clouds: Overcast
Visibility: 7 miles , 11 km
Cloud details: Overcast 700 ft
2019/01/20 00:56 KBTP 200056Z AUTO 08009KT 7SM -RA OVC007 01/00 A2960 RMK AO2 SLP042 T00060000 FZRANO
KIDI - Indiana/Stewart, Pennsylvania, USA
Distance from station: ENE 29mi, 47km
Updated: Sat, 19-Jan-2019 7:55pm EST
Mist, Overcast
Mist, Overcast
 Wind from SE
Wind: SE 13 mph , 20 km/h, Gust: 20 mph , 31 km/h
Temperature: 36°F , 2°C
Wind Chill: 27°F , -3°C
Dew Point: 32°F , 0°C
Humidity: 87%
Barometer: 29.68 inHg , 1005.1 hPa
Summary: Mist
Clouds: Overcast
Visibility: 3 miles , 5 km
Cloud details: Partly cloudy 1400 ft
Partly cloudy 1900 ft
Overcast 3400 ft
2019/01/20 00:55 KIDI 200055Z AUTO 13011G17KT 3SM BR SCT014 SCT019 OVC034 02/00 A2968 RMK A01
 
KPIT - Pittsburgh, Pennsylvania, USA
Distance from station: W 36mi, 57km
Updated: Sat, 19-Jan-2019 7:51pm EST
Light rain, Snow, Mist, Overcast
Light rain, Snow, Mist, Overcast
 Wind from ENE
Wind: ENE 7 mph , 11 km/h
Temperature: 36°F , 2°C
Wind Chill: 30°F , -1°C
Dew Point: 36°F , 2°C
Humidity: 100%
Barometer: 29.57 inHg , 1001.4 hPa
Summary: Light rain, Snow, Mist
Clouds: Overcast
Visibility: 2 miles , 3 km
Cloud details: Mostly cloudy 500 ft
Overcast 1000 ft
2019/01/20 00:51 KPIT 200051Z 07006KT 2SM -RASN BR BKN005 OVC010 02/02 A2957 RMK AO2 SFC VIS 4 SNE08B27 SLP032 P0010 T00170017
KJST - Johnstown, Pennsylvania, USA
Distance from station: ESE 41mi, 66km
Updated: Sat, 19-Jan-2019 7:54pm EST
Light snow, Mist, Overcast
Light snow, Mist, Overcast
 Wind from SE
Wind: SE 14 mph , 22 km/h, Gust: 20 mph , 31 km/h
Temperature: 30°F , -1°C
Wind Chill: 19°F , -7°C
Dew Point: 27°F , -3°C
Humidity: 86%
Barometer: 29.65 inHg , 1004.1 hPa
Summary: Light snow, Mist
Clouds: Overcast
Visibility: 4 miles , 6 km
Cloud details: Partly cloudy 1300 ft
Overcast 3200 ft
2019/01/20 00:54 KJST 200054Z AUTO 13012G17KT 4SM -SN BR SCT013 OVC032 M01/M03 A2965 RMK AO2 PK WND 12028/0006 FZRAE29SNB29 SLP061 P0004 I1001 T10061028
 
KAFJ - Washington, Pennsylvania, USA
Distance from station: WSW 42mi, 68km
Updated: Sat, 19-Jan-2019 7:56pm EST
Rain, Overcast
Rain, Overcast
 Wind from ESE
Wind: ESE 6 mph , 9 km/h
Temperature: 39°F , 4°C
Wind Chill: 35°F , 2°C
Dew Point: 37°F , 3°C
Humidity: 93%
Barometer: 29.57 inHg , 1001.4 hPa
Summary: Rain
Clouds: Overcast
Visibility: 9 miles , 14 km
Cloud details: Overcast 400 ft
2019/01/20 00:56 KAFJ 200056Z AUTO 12005KT 9SM RA OVC004 04/03 A2957 RMK AO2 SLP020 P0008 T00390033
KBVI - Beaver Falls Arp, Pennsylvania, USA
Distance from station: WNW 48mi, 77km
Updated: Tue, 15-Jan-2019 6:47pm EST
NOT Current
Overcast
Overcast
 Wind from WSW
Wind: WSW 13 mph , 20 km/h, Gust: 18 mph , 30 km/h
Temperature: 23°F , -5°C
Wind Chill: 11°F , -12°C
Dew Point: 19°F , -7°C
Humidity: 86%
Barometer: 30.14 inHg , 1020.7 hPa
Clouds: Overcast
Visibility: 10 miles , 16 km
Cloud details: Overcast 1100 ft
2019/01/15 23:47 KBVI 152347Z 25011G16KT 10SM OVC011 M05/M07 A3014